createdAt,value
2019-03-25T00:01:59.450Z,64.40
2019-03-25T00:07:03.924Z,65.00
2019-03-25T00:12:08.480Z,63.30
2019-03-25T00:17:13.009Z,64.10
2019-03-25T00:22:17.538Z,64.40
2019-03-25T00:27:22.160Z,65.90
2019-03-25T00:32:27.360Z,65.00
2019-03-25T00:37:32.656Z,64.10
2019-03-25T00:42:38.099Z,64.50
2019-03-25T00:47:43.595Z,65.30
2019-03-25T00:52:49.249Z,63.90
2019-03-25T00:57:54.756Z,64.60
2019-03-25T01:03:00.358Z,64.30
2019-03-25T01:08:05.978Z,65.40
2019-03-25T01:13:11.600Z,65.50
2019-03-25T01:18:17.541Z,64.40
2019-03-25T01:23:24.470Z,65.30
2019-03-25T01:28:30.028Z,65.10
2019-03-25T01:33:35.266Z,65.10
2019-03-25T01:38:41.142Z,64.60
2019-03-25T01:43:46.466Z,66.00
2019-03-25T01:48:51.996Z,65.10
2019-03-25T01:53:57.384Z,62.90
2019-03-25T01:59:02.590Z,63.60
2019-03-25T02:04:08.195Z,63.50
2019-03-25T02:09:13.778Z,63.40
2019-03-25T02:14:19.112Z,63.80
2019-03-25T02:19:24.562Z,63.30
2019-03-25T02:24:30.811Z,63.90
2019-03-25T02:29:35.932Z,64.20
2019-03-25T02:34:41.429Z,64.20
2019-03-25T02:39:47.036Z,65.10
2019-03-25T02:44:52.252Z,64.00
2019-03-25T02:49:57.759Z,64.70
2019-03-25T02:55:03.795Z,64.90
2019-03-25T03:00:10.374Z,63.90
2019-03-25T03:05:15.671Z,64.00
2019-03-25T03:10:21.226Z,64.10
2019-03-25T03:15:26.686Z,64.10
2019-03-25T03:20:32.232Z,62.40
2019-03-25T03:25:36.950Z,63.90
2019-03-25T03:30:42.345Z,64.40
2019-03-25T03:35:47.857Z,65.50
2019-03-25T03:40:53.317Z,65.00
2019-03-25T03:45:58.887Z,66.20
2019-03-25T03:51:04.565Z,64.70
2019-03-25T03:56:13.426Z,64.90
2019-03-25T04:01:16.271Z,65.50
2019-03-25T04:06:20.835Z,65.90
2019-03-25T04:11:25.767Z,65.30
2019-03-25T04:16:30.350Z,65.30
2019-03-25T04:21:35.073Z,64.70
2019-03-25T04:26:39.653Z,65.20
2019-03-25T04:31:44.310Z,64.80
2019-03-25T04:36:49.068Z,63.50
2019-03-25T04:41:54.318Z,63.90
2019-03-25T04:46:59.018Z,63.30
2019-03-25T04:52:04.568Z,62.70
2019-03-25T04:57:10.107Z,62.20
2019-03-25T05:02:14.874Z,62.50
2019-03-25T05:07:20.539Z,62.40
2019-03-25T05:12:26.077Z,61.30
2019-03-25T05:17:31.543Z,61.20
2019-03-25T05:22:37.132Z,60.80
2019-03-25T05:27:46.216Z,61.60
2019-03-25T05:32:52.023Z,61.50
2019-03-25T05:37:57.508Z,61.40
2019-03-25T05:43:03.198Z,60.90
2019-03-25T05:48:08.784Z,61.20
2019-03-25T05:53:14.516Z,60.70
2019-03-25T05:58:20.082Z,61.00
2019-03-25T06:03:25.719Z,59.50
2019-03-25T06:08:31.435Z,59.90
2019-03-25T06:13:37.256Z,59.90
2019-03-25T06:18:43.178Z,60.20
2019-03-25T06:23:49.196Z,59.30
2019-03-25T06:28:55.310Z,59.80
2019-03-25T06:34:00.734Z,59.90
2019-03-25T06:39:07.059Z,59.10
2019-03-25T06:44:12.608Z,60.80
2019-03-25T06:49:19.191Z,60.90
2019-03-25T06:54:25.394Z,60.30
2019-03-25T06:59:30.858Z,60.80
2019-03-25T07:04:47.974Z,60.10
2019-03-25T07:09:53.764Z,59.30
2019-03-25T07:14:59.580Z,59.20
2019-03-25T07:20:05.845Z,58.60
2019-03-25T07:25:12.051Z,58.20
2019-03-25T07:30:19.048Z,58.20
2019-03-25T07:35:24.776Z,57.80
2019-03-25T07:40:31.151Z,57.80
2019-03-25T07:45:37.184Z,57.60
2019-03-25T07:50:44.310Z,57.80
2019-03-25T07:55:51.262Z,57.70
2019-03-25T08:00:55.575Z,57.70
2019-03-25T08:06:00.183Z,58.40
2019-03-25T08:11:05.210Z,57.90
2019-03-25T08:16:10.039Z,57.50
2019-03-25T08:21:14.734Z,56.90
2019-03-25T08:26:19.774Z,57.90
2019-03-25T08:31:24.245Z,58.50
2019-03-25T08:36:28.240Z,58.30
2019-03-25T08:41:32.529Z,58.50
2019-03-25T08:46:37.334Z,58.20
2019-03-25T08:51:42.521Z,59.70
2019-03-25T08:56:47.366Z,58.60
2019-03-25T09:01:52.469Z,58.20
2019-03-25T09:06:57.110Z,57.30
2019-03-25T09:12:01.886Z,57.10
2019-03-25T09:17:07.484Z,57.40
2019-03-25T09:22:12.463Z,56.30
2019-03-25T09:27:17.373Z,55.20
2019-03-25T09:32:22.634Z,53.90
2019-03-25T09:37:27.996Z,53.70
2019-03-25T09:42:33.842Z,53.30
2019-03-25T09:47:39.686Z,53.90
2019-03-25T09:52:45.755Z,53.30
2019-03-25T09:57:51.735Z,50.80
2019-03-25T10:02:57.983Z,52.10
2019-03-25T10:08:03.580Z,48.60
2019-03-25T10:13:09.704Z,47.70
2019-03-25T10:18:15.526Z,47.60
2019-03-25T10:23:21.071Z,48.40
2019-03-25T10:28:28.727Z,47.40
2019-03-25T10:33:35.769Z,44.90
2019-03-25T10:38:41.415Z,42.70
2019-03-25T10:43:47.135Z,41.00
2019-03-25T10:48:53.055Z,35.60
2019-03-25T10:53:58.768Z,37.10
2019-03-25T10:59:04.838Z,36.60
2019-03-25T11:04:10.293Z,35.70
2019-03-25T11:09:16.021Z,37.10
2019-03-25T11:14:22.048Z,35.10
2019-03-25T11:19:27.835Z,36.10
2019-03-25T11:24:33.587Z,35.40
2019-03-25T11:29:40.811Z,35.10
2019-03-25T11:34:46.477Z,35.60
2019-03-25T11:39:52.123Z,33.80
2019-03-25T11:44:57.804Z,35.20
2019-03-25T11:50:04.104Z,34.30
2019-03-25T11:55:10.627Z,33.70
2019-03-25T12:00:16.817Z,35.10
2019-03-25T12:05:22.648Z,33.00
2019-03-25T12:10:29.397Z,33.90
2019-03-25T12:15:35.358Z,36.80
2019-03-25T12:20:41.215Z,38.70
2019-03-25T12:25:46.791Z,39.00
2019-03-25T12:30:52.876Z,39.50
2019-03-25T12:35:58.768Z,39.70
2019-03-25T12:41:05.636Z,39.50
2019-03-25T12:46:11.775Z,43.20
2019-03-25T12:51:17.061Z,47.20
2019-03-25T12:56:22.044Z,46.80
2019-03-25T13:01:26.988Z,45.40
2019-03-25T13:06:31.914Z,46.10
2019-03-25T13:11:37.393Z,48.10
2019-03-25T13:16:42.765Z,50.20
2019-03-25T13:21:48.222Z,47.50
2019-03-25T13:26:53.016Z,48.10
2019-03-25T13:31:57.980Z,48.90
2019-03-25T13:37:03.230Z,45.90
2019-03-25T13:42:09.380Z,46.10
2019-03-25T13:47:15.305Z,44.60
2019-03-25T13:52:21.367Z,40.90
2019-03-25T13:57:27.166Z,43.90
2019-03-25T14:02:34.615Z,44.40
2019-03-25T14:07:40.233Z,48.20
2019-03-25T14:12:46.358Z,49.20
2019-03-25T14:17:51.911Z,50.40
2019-03-25T14:22:57.436Z,48.30
2019-03-25T14:28:03.096Z,49.30
2019-03-25T14:33:10.093Z,51.30
2019-03-25T14:38:15.798Z,55.90
2019-03-25T14:43:21.625Z,54.00
2019-03-25T14:48:27.579Z,58.80
2019-03-25T14:53:33.047Z,58.60
2019-03-25T14:58:39.054Z,56.40
2019-03-25T15:03:44.811Z,59.80
2019-03-25T15:08:51.206Z,60.10
2019-03-25T15:13:56.709Z,63.60
2019-03-25T15:19:02.607Z,59.80
2019-03-25T15:24:08.444Z,57.30
2019-03-25T15:29:14.540Z,58.80
2019-03-25T15:34:21.400Z,58.40
2019-03-25T15:39:27.841Z,56.00
2019-03-25T15:44:33.676Z,57.00
2019-03-25T15:49:39.273Z,50.80
2019-03-25T15:54:45.053Z,51.80
2019-03-25T15:59:50.876Z,51.10
2019-03-25T16:04:56.900Z,51.10
2019-03-25T16:10:03.176Z,48.80
2019-03-25T16:15:09.611Z,48.10
2019-03-25T16:20:16.129Z,48.80
2019-03-25T16:25:28.350Z,52.20
2019-03-25T16:30:34.513Z,50.80
2019-03-25T16:35:41.160Z,51.90
2019-03-25T16:40:46.792Z,52.30
2019-03-25T16:45:52.608Z,54.70
2019-03-25T16:50:59.090Z,52.60
2019-03-25T16:56:03.813Z,52.60
2019-03-25T17:01:10.271Z,52.90
2019-03-25T17:06:15.197Z,53.40
2019-03-25T17:11:19.973Z,54.30
2019-03-25T17:16:24.865Z,54.50
2019-03-25T17:21:31.355Z,54.10
2019-03-25T17:26:42.241Z,53.60
2019-03-25T17:31:42.628Z,54.00
2019-03-25T17:36:47.277Z,54.30
2019-03-25T17:41:52.202Z,55.00
2019-03-25T17:46:58.588Z,55.20
2019-03-25T17:52:04.109Z,57.30
2019-03-25T17:57:09.868Z,62.00
2019-03-25T18:02:14.834Z,67.20
2019-03-25T18:07:22.044Z,69.10
2019-03-25T18:12:38.208Z,71.30
2019-03-25T18:17:35.079Z,71.70
2019-03-25T18:22:40.723Z,72.20
2019-03-25T18:27:58.565Z,71.80
2019-03-25T18:33:04.197Z,73.50
2019-03-25T18:38:11.071Z,74.50
2019-03-25T18:43:18.548Z,74.20
2019-03-25T18:48:40.868Z,72.80
2019-03-25T18:53:46.668Z,78.60
2019-03-25T18:58:52.483Z,80.40
2019-03-25T19:03:58.578Z,84.60
2019-03-25T19:09:06.829Z,82.00
2019-03-25T19:14:13.122Z,80.30
2019-03-25T19:19:19.304Z,85.30
2019-03-25T19:24:25.759Z,86.40
2019-03-25T19:29:31.598Z,82.90
2019-03-25T19:34:38.062Z,86.00
2019-03-25T19:39:45.139Z,84.00
2019-03-25T19:44:51.614Z,87.90
2019-03-25T19:49:57.533Z,88.60
2019-03-25T19:55:03.664Z,86.00
2019-03-25T20:00:10.129Z,85.60
2019-03-25T20:05:15.956Z,88.80
2019-03-25T20:10:31.546Z,89.20
2019-03-25T20:15:45.871Z,88.60
2019-03-25T20:20:42.813Z,88.70
2019-03-25T20:25:47.353Z,90.30
2019-03-25T20:30:52.744Z,91.40
2019-03-25T20:35:57.479Z,92.00
2019-03-25T20:41:03.463Z,92.20
2019-03-25T20:46:09.303Z,90.10
2019-03-25T20:51:15.206Z,94.10
2019-03-25T20:56:20.752Z,93.90
2019-03-25T21:01:25.633Z,94.70
2019-03-25T21:06:31.409Z,96.20
2019-03-25T21:11:36.595Z,93.60
2019-03-25T21:16:42.272Z,93.30
2019-03-25T21:21:47.066Z,92.10
2019-03-25T21:26:52.146Z,87.50
2019-03-25T21:31:57.257Z,84.80
2019-03-25T21:37:05.501Z,90.60
2019-03-25T21:42:10.804Z,91.80
2019-03-25T21:47:17.024Z,87.60
2019-03-25T21:52:30.749Z,89.10
2019-03-25T21:57:37.074Z,88.60
2019-03-25T22:18:25.811Z,93.30
2019-03-25T22:23:32.574Z,91.50
